createdAt,value
2018-04-08T00:01:21.163Z,73.10
2018-04-08T00:03:48.443Z,73.60
2018-04-08T00:06:15.643Z,74.40
2018-04-08T00:08:42.823Z,74.50
2018-04-08T00:11:10.783Z,75.00
2018-04-08T00:13:37.944Z,75.00
2018-04-08T00:16:05.063Z,75.10
2018-04-08T00:18:33.722Z,75.50
2018-04-08T00:21:00.923Z,75.30
2018-04-08T00:23:28.203Z,75.60
2018-04-08T00:25:55.463Z,75.70
2018-04-08T00:28:22.624Z,75.70
2018-04-08T00:30:49.863Z,75.80
2018-04-08T00:33:17.144Z,76.00
2018-04-08T00:35:44.343Z,76.10
2018-04-08T00:38:11.613Z,76.30
2018-04-08T00:40:38.924Z,76.40
2018-04-08T00:43:06.843Z,76.80
2018-04-08T00:45:34.037Z,76.20
2018-04-08T00:48:02.024Z,76.50
2018-04-08T00:50:29.162Z,76.40
2018-04-08T00:52:56.443Z,76.40
2018-04-08T00:55:23.723Z,77.10
2018-04-08T00:57:50.902Z,76.70
2018-04-08T01:00:18.102Z,76.60
2018-04-08T01:02:45.303Z,76.50
2018-04-08T01:05:12.502Z,76.60
2018-04-08T01:07:39.722Z,76.70
2018-04-08T01:10:07.003Z,76.50
2018-04-08T01:12:34.183Z,76.50
2018-04-08T01:15:01.403Z,76.50
2018-04-08T01:17:28.743Z,76.50
2018-04-08T01:19:55.963Z,76.40
2018-04-08T01:22:24.022Z,76.50
2018-04-08T01:24:52.123Z,76.50
2018-04-08T01:27:19.324Z,76.50
2018-04-08T01:29:46.522Z,76.50
2018-04-08T01:32:13.883Z,76.50
2018-04-08T01:34:41.083Z,76.90
2018-04-08T01:37:08.342Z,77.00
2018-04-08T01:39:35.564Z,77.10
2018-04-08T01:42:02.743Z,77.00
2018-04-08T01:44:30.742Z,78.00
2018-04-08T01:46:57.863Z,78.00
2018-04-08T01:49:24.983Z,78.10
2018-04-08T01:51:52.104Z,78.20
2018-04-08T01:54:19.405Z,78.30
2018-04-08T01:56:46.582Z,78.10
2018-04-08T01:59:13.803Z,78.10
2018-04-08T02:01:41.104Z,78.10
2018-04-08T02:04:08.362Z,78.10
2018-04-08T02:06:35.564Z,78.10
2018-04-08T02:09:03.144Z,78.10
2018-04-08T02:11:30.342Z,77.90
2018-04-08T02:13:57.543Z,77.80
2018-04-08T02:16:24.762Z,78.00
2018-04-08T02:18:51.963Z,78.10
2018-04-08T02:21:19.143Z,78.10
2018-04-08T02:23:46.282Z,78.20
2018-04-08T02:26:13.483Z,78.30
2018-04-08T02:28:40.663Z,78.20
2018-04-08T02:31:07.904Z,78.20
2018-04-08T02:33:35.064Z,78.40
2018-04-08T02:36:02.183Z,79.00
2018-04-08T02:38:29.323Z,79.30
2018-04-08T02:40:57.303Z,80.00
2018-04-08T02:43:24.523Z,80.00
2018-04-08T02:45:51.784Z,80.40
2018-04-08T02:48:19.084Z,80.70
2018-04-08T02:50:46.384Z,81.70
2018-04-08T02:53:13.583Z,82.00
2018-04-08T02:55:41.222Z,82.10
2018-04-08T02:58:09.863Z,82.20
2018-04-08T03:00:37.133Z,81.90
2018-04-08T03:03:05.084Z,83.00
2018-04-08T03:05:32.283Z,82.90
2018-04-08T03:07:59.550Z,83.20
2018-04-08T03:10:26.743Z,83.90
2018-04-08T03:12:53.943Z,84.00
2018-04-08T03:15:21.083Z,84.30
2018-04-08T03:17:48.263Z,84.60
2018-04-08T03:20:15.482Z,85.10
2018-04-08T03:22:42.663Z,85.60
2018-04-08T03:25:10.526Z,85.70
2018-04-08T03:27:37.542Z,85.70
2018-04-08T03:30:04.683Z,85.70
2018-04-08T03:32:31.888Z,86.00
2018-04-08T03:34:59.082Z,86.10
2018-04-08T03:37:26.343Z,86.00
2018-04-08T03:39:53.544Z,86.30
2018-04-08T03:42:20.763Z,86.80
2018-04-08T03:44:48.742Z,87.20
2018-04-08T03:47:15.903Z,87.20
2018-04-08T03:49:43.143Z,87.30
2018-04-08T03:52:10.583Z,87.30
2018-04-08T03:54:37.863Z,87.40
2018-04-08T03:57:05.944Z,87.60
2018-04-08T03:59:33.223Z,87.50
2018-04-08T04:02:00.445Z,87.80
2018-04-08T04:04:27.623Z,88.00
2018-04-08T04:06:54.903Z,88.00
2018-04-08T04:09:22.023Z,88.00
2018-04-08T04:11:49.324Z,88.20
2018-04-08T04:14:16.623Z,88.50
2018-04-08T04:16:43.865Z,88.60
2018-04-08T04:19:29.223Z,88.90
2018-04-08T04:22:15.063Z,89.30
2018-04-08T04:25:00.343Z,89.30
2018-04-08T04:27:28.123Z,89.50
2018-04-08T04:29:56.123Z,89.30
2018-04-08T04:32:23.483Z,89.30
2018-04-08T04:34:50.743Z,89.30
2018-04-08T04:37:18.023Z,89.50
2018-04-08T04:39:45.183Z,89.70
2018-04-08T04:42:12.363Z,90.00
2018-04-08T04:44:39.543Z,90.10
2018-04-08T04:47:06.743Z,90.20
2018-04-08T04:49:33.933Z,90.30
2018-04-08T04:52:01.064Z,90.30
2018-04-08T04:54:28.343Z,90.30
2018-04-08T04:56:55.590Z,90.20
2018-04-08T04:59:22.743Z,90.10
2018-04-08T05:01:50.023Z,90.00
2018-04-08T05:04:17.146Z,90.00
2018-04-08T05:06:44.270Z,89.40
2018-04-08T05:09:11.563Z,87.80
2018-04-08T05:11:38.859Z,87.20
2018-04-08T05:14:06.132Z,84.90
2018-04-08T05:16:33.348Z,83.60
2018-04-08T05:19:00.502Z,81.70
2018-04-08T05:21:27.583Z,79.20
2018-04-08T05:23:54.792Z,77.90
2018-04-08T05:26:21.976Z,76.30
2018-04-08T05:28:49.163Z,75.50
2018-04-08T05:31:17.164Z,76.80
2018-04-08T05:33:44.383Z,76.70
2018-04-08T05:36:11.623Z,77.30
2018-04-08T05:38:39.586Z,78.80
2018-04-08T05:41:06.686Z,78.80
2018-04-08T05:43:34.463Z,78.40
2018-04-08T05:46:01.701Z,76.70
2018-04-08T05:48:28.821Z,75.70
2018-04-08T05:50:56.063Z,75.20
2018-04-08T05:53:23.222Z,74.40
2018-04-08T05:55:50.423Z,74.80
2018-04-08T05:58:17.511Z,75.50
2018-04-08T06:00:44.743Z,76.10
2018-04-08T06:03:13.483Z,77.10
2018-04-08T06:05:40.704Z,77.00
2018-04-08T06:08:07.883Z,77.90
2018-04-08T06:10:35.067Z,78.60
2018-04-08T06:13:02.283Z,79.00
2018-04-08T06:15:29.584Z,79.30
2018-04-08T06:17:57.462Z,79.60
2018-04-08T06:20:24.764Z,79.50
2018-04-08T06:22:51.964Z,80.10
2018-04-08T06:25:19.148Z,80.60
2018-04-08T06:27:46.523Z,80.60
2018-04-08T06:30:13.729Z,80.50
2018-04-08T06:32:41.626Z,80.50
2018-04-08T06:35:09.003Z,80.40
2018-04-08T06:37:36.271Z,79.90
2018-04-08T06:40:03.563Z,80.20
2018-04-08T06:42:30.923Z,79.90
2018-04-08T06:44:58.204Z,78.50
2018-04-08T06:47:25.483Z,79.80
2018-04-08T06:49:52.813Z,78.80
2018-04-08T06:52:20.050Z,77.60
2018-04-08T06:54:47.243Z,77.90
2018-04-08T06:57:14.543Z,76.40
2018-04-08T06:59:41.783Z,77.40
2018-04-08T07:02:09.703Z,75.80
2018-04-08T07:04:37.023Z,75.80
2018-04-08T07:07:04.263Z,74.10
2018-04-08T07:09:31.484Z,73.80
2018-04-08T07:11:59.609Z,71.70
2018-04-08T07:14:26.783Z,71.70
2018-04-08T07:16:53.983Z,70.20
2018-04-08T07:19:21.324Z,71.50
2018-04-08T07:21:49.324Z,70.90
2018-04-08T07:24:16.709Z,70.90
2018-04-08T07:26:43.939Z,72.30
2018-04-08T07:29:11.083Z,71.00
2018-04-08T07:31:38.302Z,69.90
2018-04-08T07:34:06.203Z,67.60
2018-04-08T07:36:33.402Z,67.50
2018-04-08T07:39:00.682Z,67.40
2018-04-08T07:41:27.854Z,66.10
2018-04-08T07:43:55.083Z,65.40
2018-04-08T07:46:22.172Z,66.10
2018-04-08T07:48:49.422Z,65.10
2018-04-08T07:51:16.486Z,65.10
2018-04-08T07:53:43.887Z,66.90
2018-04-08T07:56:11.083Z,65.60
2018-04-08T07:58:38.362Z,65.60
2018-04-08T08:01:05.445Z,64.50
2018-04-08T08:03:32.683Z,65.20
2018-04-08T08:05:59.884Z,65.00
2018-04-08T08:08:27.162Z,64.20
2018-04-08T08:10:55.083Z,63.20
2018-04-08T08:13:22.143Z,63.20
2018-04-08T08:15:49.402Z,61.30
2018-04-08T08:18:16.611Z,61.80
2018-04-08T08:20:43.789Z,60.70
2018-04-08T08:23:10.806Z,61.60
2018-04-08T08:25:38.012Z,62.00
2018-04-08T08:28:05.226Z,59.40
2018-04-08T08:30:32.154Z,60.00
2018-04-08T08:32:59.062Z,59.30
2018-04-08T08:35:26.930Z,58.40
2018-04-08T08:37:54.126Z,58.40
2018-04-08T08:40:21.187Z,59.90
2018-04-08T08:42:48.397Z,60.20
2018-04-08T08:45:16.277Z,55.70
2018-04-08T08:47:43.955Z,54.30
2018-04-08T08:50:11.043Z,54.20
2018-04-08T08:52:38.269Z,53.10
2018-04-08T08:55:06.125Z,52.90
2018-04-08T08:57:33.113Z,53.10
2018-04-08T09:00:00.834Z,51.40
2018-04-08T09:02:27.813Z,51.30
2018-04-08T09:04:54.924Z,51.30
2018-04-08T09:07:22.026Z,49.50
2018-04-08T09:09:49.249Z,50.90
2018-04-08T09:12:18.583Z,50.20
2018-04-08T09:14:46.864Z,50.30
2018-04-08T09:17:13.833Z,50.30
2018-04-08T09:19:46.777Z,48.90
2018-04-08T09:22:19.897Z,48.60
2018-04-08T09:24:47.138Z,51.40
2018-04-08T09:27:14.233Z,48.90
2018-04-08T09:29:41.643Z,48.70
2018-04-08T09:32:08.737Z,47.60
2018-04-08T09:34:35.774Z,48.60
2018-04-08T09:37:03.014Z,48.40
2018-04-08T09:39:30.182Z,47.30
2018-04-08T09:41:58.068Z,47.10
2018-04-08T09:44:25.123Z,47.20
2018-04-08T09:46:52.262Z,46.50
2018-04-08T09:49:19.501Z,46.30
2018-04-08T09:51:46.621Z,45.50
2018-04-08T09:54:13.803Z,46.90
2018-04-08T09:56:41.021Z,47.60
2018-04-08T09:59:08.201Z,47.20
2018-04-08T10:01:41.261Z,45.70
2018-04-08T10:04:08.420Z,46.10
2018-04-08T10:06:35.561Z,46.00
2018-04-08T10:09:02.941Z,48.00
2018-04-08T10:11:30.101Z,47.50
2018-04-08T10:13:57.181Z,45.50
2018-04-08T10:16:24.301Z,44.10
2018-04-08T10:18:56.500Z,44.20
2018-04-08T10:21:28.680Z,42.50
2018-04-08T10:26:22.421Z,42.80
2018-04-08T10:28:54.644Z,42.90
2018-04-08T10:31:26.761Z,43.10
2018-04-08T10:33:58.962Z,42.10
2018-04-08T10:36:31.158Z,42.50
2018-04-08T10:39:03.640Z,42.00
2018-04-08T10:41:35.841Z,45.10
2018-04-08T10:44:08.004Z,42.20
2018-04-08T10:46:40.243Z,41.50
2018-04-08T10:49:12.503Z,41.00
2018-04-08T10:51:44.809Z,42.10
2018-04-08T10:54:17.169Z,42.90
2018-04-08T10:56:49.363Z,41.10
2018-04-08T10:59:22.244Z,42.70
2018-04-08T11:01:54.517Z,42.60
2018-04-08T11:04:27.470Z,42.90
2018-04-08T11:06:59.724Z,42.40
2018-04-08T11:09:31.982Z,44.10
2018-04-08T11:12:04.263Z,43.60
2018-04-08T11:14:36.441Z,42.80
2018-04-08T11:17:08.641Z,42.70
2018-04-08T11:19:41.522Z,40.40
2018-04-08T11:22:13.702Z,40.30
2018-04-08T11:24:45.822Z,40.90
2018-04-08T11:27:17.962Z,43.00
2018-04-08T11:29:50.905Z,39.80
2018-04-08T11:32:23.122Z,39.70
2018-04-08T11:34:55.302Z,38.20
2018-04-08T11:37:27.581Z,39.70
2018-04-08T11:39:59.882Z,40.20
2018-04-08T11:42:32.074Z,39.60
2018-04-08T11:45:04.322Z,41.60
2018-04-08T11:47:36.514Z,38.10
2018-04-08T11:50:08.713Z,40.20
2018-04-08T11:52:40.977Z,38.70
2018-04-08T11:55:13.192Z,39.10
2018-04-08T11:57:45.333Z,39.20
2018-04-08T12:00:17.640Z,38.60
2018-04-08T12:02:49.946Z,36.70
2018-04-08T12:05:22.166Z,39.60
2018-04-08T12:07:55.166Z,37.50
2018-04-08T12:10:27.486Z,37.40
2018-04-08T12:12:59.686Z,34.00
2018-04-08T12:15:32.006Z,33.40
2018-04-08T12:18:04.182Z,32.50
2018-04-08T12:20:37.722Z,34.30
2018-04-08T12:23:13.789Z,34.30
2018-04-08T12:25:46.125Z,35.30
2018-04-08T12:28:18.364Z,37.60
2018-04-08T12:30:51.384Z,36.20
2018-04-08T12:33:23.545Z,36.30
2018-04-08T12:35:55.736Z,33.00
2018-04-08T12:38:28.072Z,34.80
2018-04-08T12:41:00.189Z,34.30
2018-04-08T12:43:32.397Z,35.10
2018-04-08T12:46:04.696Z,33.10
2018-04-08T12:48:36.862Z,33.50
2018-04-08T12:51:09.023Z,32.40
2018-04-08T12:53:41.348Z,33.30
2018-04-08T12:56:13.504Z,32.40
2018-04-08T12:58:45.732Z,32.30
2018-04-08T13:01:17.925Z,31.70
2018-04-08T13:03:50.122Z,32.40
2018-04-08T13:06:22.404Z,33.20
2018-04-08T13:08:55.327Z,31.80
2018-04-08T13:11:27.502Z,31.80
2018-04-08T13:13:59.649Z,34.50
2018-04-08T13:16:32.462Z,33.20
2018-04-08T13:19:08.263Z,33.50
2018-04-08T13:21:41.285Z,35.10
2018-04-08T13:24:14.243Z,35.40
2018-04-08T13:26:47.175Z,35.90
2018-04-08T13:29:19.304Z,35.90
2018-04-08T13:31:51.504Z,33.00
2018-04-08T13:34:23.805Z,33.60
2018-04-08T13:36:56.265Z,31.60
2018-04-08T13:39:29.244Z,32.80
2018-04-08T13:42:01.525Z,32.80
2018-04-08T13:44:35.186Z,32.70
2018-04-08T13:47:07.445Z,33.20
2018-04-08T13:49:39.665Z,31.30
2018-04-08T13:52:11.886Z,31.20
2018-04-08T13:54:44.084Z,31.90
2018-04-08T13:57:16.244Z,31.90
2018-04-08T13:59:48.534Z,32.50
2018-04-08T14:02:20.799Z,31.20
2018-04-08T14:04:53.680Z,30.50
2018-04-08T14:07:25.942Z,30.50
2018-04-08T14:09:58.203Z,29.90
2018-04-08T14:12:30.482Z,30.60
2018-04-08T14:15:02.784Z,29.80
2018-04-08T14:17:35.857Z,30.00
2018-04-08T14:20:08.127Z,30.00
2018-04-08T14:22:40.468Z,30.60
2018-04-08T14:25:12.748Z,31.60
2018-04-08T14:27:44.948Z,30.80
2018-04-08T14:30:18.028Z,31.40
2018-04-08T14:32:50.228Z,31.30
2018-04-08T14:35:22.467Z,31.40
2018-04-08T14:37:54.787Z,32.20
2018-04-08T14:40:27.012Z,31.70
2018-04-08T14:42:59.347Z,31.80
2018-04-08T14:45:32.308Z,31.80
2018-04-08T14:48:04.491Z,31.80
2018-04-08T14:50:36.768Z,31.00
2018-04-08T14:53:09.048Z,31.80
2018-04-08T14:55:41.227Z,30.70
2018-04-08T14:58:13.535Z,31.20
2018-04-08T15:00:45.828Z,30.50
2018-04-08T15:03:17.989Z,31.30
2018-04-08T15:05:50.568Z,32.30
2018-04-08T15:08:33.429Z,32.10
2018-04-08T15:11:05.689Z,32.10
2018-04-08T15:13:37.908Z,31.60
2018-04-08T15:16:10.168Z,31.70
2018-04-08T15:18:43.206Z,32.40
2018-04-08T15:21:15.404Z,32.30
2018-04-08T15:23:47.624Z,31.60
2018-04-08T15:26:19.863Z,31.60
2018-04-08T15:28:51.992Z,31.20
2018-04-08T15:31:24.275Z,32.50
2018-04-08T15:33:56.512Z,32.80
2018-04-08T15:36:29.544Z,32.20
2018-04-08T15:39:01.833Z,32.10
2018-04-08T15:41:34.812Z,33.90
2018-04-08T15:44:07.013Z,33.90
2018-04-08T15:46:39.172Z,33.60
2018-04-08T15:49:12.111Z,32.50
2018-04-08T15:51:44.312Z,32.50
2018-04-08T15:54:16.505Z,34.20
2018-04-08T15:56:48.673Z,33.10
2018-04-08T15:59:20.912Z,33.00
2018-04-08T16:01:53.147Z,33.30
2018-04-08T16:04:25.297Z,33.50
2018-04-08T16:06:57.579Z,33.30
2018-04-08T16:09:29.700Z,33.80
2018-04-08T16:12:01.889Z,34.10
2018-04-08T16:14:34.089Z,33.80
2018-04-08T16:17:06.296Z,33.50
2018-04-08T16:19:38.508Z,33.80
2018-04-08T16:22:10.652Z,33.90
2018-04-08T16:24:43.009Z,34.00
2018-04-08T16:27:15.247Z,34.40
2018-04-08T16:29:47.468Z,34.60
2018-04-08T16:32:20.315Z,34.70
2018-04-08T16:34:53.249Z,35.00
2018-04-08T16:37:25.426Z,35.00
2018-04-08T16:39:57.626Z,35.20
2018-04-08T16:42:29.807Z,35.80
2018-04-08T16:45:02.046Z,35.00
2018-04-08T16:47:34.291Z,35.00
2018-04-08T16:50:06.514Z,34.90
2018-04-08T16:52:38.746Z,35.10
2018-04-08T16:55:10.945Z,35.10
2018-04-08T16:57:43.886Z,35.50
2018-04-08T17:00:16.167Z,35.50
2018-04-08T17:02:48.345Z,35.10
2018-04-08T17:05:20.526Z,36.00
2018-04-08T17:07:52.855Z,36.60
2018-04-08T17:10:25.127Z,37.00
2018-04-08T17:12:57.309Z,37.50
2018-04-08T17:15:29.610Z,37.00
2018-04-08T17:18:01.901Z,36.70
2018-04-08T17:20:34.244Z,37.10
2018-04-08T17:23:06.541Z,37.40
2018-04-08T17:25:38.782Z,37.90
2018-04-08T17:28:07.086Z,38.20
2018-04-08T17:30:39.562Z,38.80
2018-04-08T17:33:12.561Z,39.60
2018-04-08T17:35:44.749Z,39.60
2018-04-08T17:38:16.922Z,40.20
2018-04-08T17:40:49.181Z,40.60
2018-04-08T17:43:21.363Z,40.70
2018-04-08T17:45:53.603Z,41.40
2018-04-08T17:48:25.764Z,42.00
2018-04-08T17:50:58.083Z,43.10
2018-04-08T17:53:30.390Z,43.70
2018-04-08T17:56:02.646Z,43.60
2018-04-08T17:58:34.906Z,43.70
2018-04-08T18:01:07.226Z,44.10
2018-04-08T18:03:39.631Z,45.00
2018-04-08T18:06:11.865Z,45.50
2018-04-08T18:08:44.826Z,46.20
2018-04-08T18:11:17.206Z,46.30
2018-04-08T18:13:49.436Z,48.10
2018-04-08T18:16:21.749Z,49.50
2018-04-08T18:18:54.006Z,50.80
2018-04-08T18:21:26.307Z,52.80
2018-04-08T18:23:58.546Z,54.40
2018-04-08T18:26:30.866Z,55.50
2018-04-08T18:29:03.046Z,56.90
2018-04-08T18:31:35.370Z,57.60
2018-04-08T18:34:07.734Z,58.10
2018-04-08T18:36:40.067Z,58.70
2018-04-08T18:39:12.389Z,59.30
2018-04-08T18:41:44.694Z,59.70
2018-04-08T18:44:17.186Z,60.00
2018-04-08T18:46:49.507Z,60.20
2018-04-08T18:49:22.549Z,61.00
2018-04-08T18:51:55.607Z,61.90
2018-04-08T18:54:27.825Z,62.00
2018-04-08T18:57:00.106Z,62.20
2018-04-08T18:59:33.147Z,64.20
2018-04-08T19:02:05.446Z,64.20
2018-04-08T19:04:38.489Z,66.90
2018-04-08T19:07:10.726Z,66.90
2018-04-08T19:09:42.966Z,67.40
2018-04-08T19:12:15.334Z,68.50
2018-04-08T19:14:53.546Z,69.10
2018-04-08T19:17:32.405Z,70.20
2018-04-08T19:20:04.647Z,70.20
2018-04-08T19:22:37.826Z,71.30
2018-04-08T19:25:10.226Z,71.20
2018-04-08T19:27:42.430Z,71.90
2018-04-08T19:30:20.632Z,72.20
2018-04-08T19:32:52.872Z,73.10
2018-04-08T19:35:25.206Z,73.50
2018-04-08T19:37:57.506Z,73.80
2018-04-08T19:40:30.506Z,74.90
2018-04-08T19:43:02.727Z,74.90
2018-04-08T19:45:35.826Z,75.00
2018-04-08T19:48:08.106Z,74.90
2018-04-08T19:50:40.467Z,74.60
2018-04-08T19:53:13.446Z,74.90
2018-04-08T19:55:45.747Z,74.90
2018-04-08T19:58:18.387Z,74.80
2018-04-08T20:00:51.586Z,75.40
2018-04-08T20:03:23.926Z,75.30
2018-04-08T20:05:56.166Z,75.70
2018-04-08T20:08:28.466Z,76.20
2018-04-08T20:11:00.788Z,75.80
2018-04-08T20:13:33.046Z,75.80
2018-04-08T20:16:05.314Z,75.70
2018-04-08T20:18:37.688Z,76.70
2018-04-08T20:21:09.986Z,76.30
2018-04-08T20:23:42.307Z,76.30
2018-04-08T20:26:14.566Z,75.90
2018-04-08T20:28:46.866Z,75.20
2018-04-08T20:31:19.907Z,71.20
2018-04-08T20:33:52.147Z,71.90
2018-04-08T20:36:24.406Z,70.10
2018-04-08T20:38:56.707Z,69.60
2018-04-08T20:41:28.946Z,69.10
2018-04-08T20:44:01.366Z,69.40
2018-04-08T20:46:33.626Z,69.40
2018-04-08T20:49:05.957Z,68.30
2018-04-08T20:51:38.166Z,66.90
2018-04-08T20:54:10.489Z,67.10
2018-04-08T20:56:43.466Z,66.60
2018-04-08T20:59:15.767Z,66.50
2018-04-08T21:01:48.066Z,66.50
2018-04-08T21:04:20.267Z,66.00
2018-04-08T21:06:52.546Z,66.20
2018-04-08T21:09:24.786Z,65.50
2018-04-08T21:11:57.067Z,64.70
2018-04-08T21:14:29.287Z,64.50
2018-04-08T21:17:01.586Z,64.40
2018-04-08T21:19:33.867Z,64.80
2018-04-08T21:22:06.146Z,64.90
2018-04-08T21:24:38.466Z,65.00
2018-04-08T21:27:10.787Z,64.70
2018-04-08T21:29:43.067Z,64.80
2018-04-08T21:32:15.346Z,64.50
2018-04-08T21:34:47.838Z,64.60
2018-04-08T21:37:20.086Z,64.80
2018-04-08T21:39:52.586Z,65.10
2018-04-08T21:42:25.610Z,65.00
2018-04-08T21:44:57.910Z,65.00
2018-04-08T21:47:30.886Z,66.30
2018-04-08T21:50:03.206Z,66.30
2018-04-08T21:52:36.187Z,66.50
2018-04-08T21:55:08.506Z,66.40
2018-04-08T21:57:40.786Z,66.40
2018-04-08T22:00:13.055Z,66.90
2018-04-08T22:02:45.286Z,66.90
2018-04-08T22:05:17.589Z,67.80
2018-04-08T22:07:49.867Z,67.90
2018-04-08T22:10:22.147Z,68.10
2018-04-08T22:12:55.186Z,68.50
2018-04-08T22:15:27.396Z,68.50
2018-04-08T22:17:59.667Z,69.10
2018-04-08T22:20:31.946Z,69.40
2018-04-08T22:23:04.166Z,69.80
2018-04-08T22:25:36.407Z,70.50
2018-04-08T22:28:08.647Z,70.70
2018-04-08T22:30:40.866Z,71.40
2018-04-08T22:33:13.946Z,73.80
2018-04-08T22:35:46.187Z,73.70
2018-04-08T22:38:18.426Z,74.10
2018-04-08T22:40:50.640Z,74.30
2018-04-08T22:43:23.027Z,74.80
2018-04-08T22:45:55.306Z,75.10
2018-04-08T22:48:27.654Z,75.40
2018-04-08T22:50:59.846Z,76.50
2018-04-08T22:53:32.066Z,76.80
2018-04-08T22:56:04.310Z,77.00
2018-04-08T22:58:36.486Z,77.10
2018-04-08T23:01:08.745Z,77.20
2018-04-08T23:03:41.026Z,77.10
2018-04-08T23:06:13.926Z,76.70
2018-04-08T23:08:46.166Z,76.70
2018-04-08T23:11:18.506Z,77.20
2018-04-08T23:13:50.806Z,78.30
2018-04-08T23:16:23.066Z,78.80
2018-04-08T23:18:55.286Z,78.90
2018-04-08T23:21:27.657Z,79.10
2018-04-08T23:24:00.706Z,79.30
2018-04-08T23:26:33.046Z,79.30
2018-04-08T23:29:05.346Z,79.30
2018-04-08T23:31:37.586Z,79.50
2018-04-08T23:34:09.766Z,79.60
2018-04-08T23:36:41.986Z,79.70
2018-04-08T23:39:14.226Z,80.30
2018-04-08T23:41:46.470Z,80.50
2018-04-08T23:44:18.646Z,80.20
2018-04-08T23:46:50.884Z,80.20
2018-04-08T23:49:24.726Z,80.90
2018-04-08T23:51:57.026Z,81.30
2018-04-08T23:54:29.286Z,80.90
2018-04-08T23:57:01.586Z,81.30
2018-04-08T23:59:33.847Z,82.00
